Time;durP1;ratioP1;P1;durP2;ratioP2;P2;SDS_P1;SDS_P2;PMS_P1;PMS_P2;Temp;Humidity;BMP_temperature;BMP_pressure;BME280_temperature;BME280_humidity;BME280_pressure;Samples;Min_cycle;Max_cycle;Signal;HPM_P1;HPM_P2
2021/08/25 00:02:04;;;;;;;3.70;3.50;;;18.80;54.20;;;;;;5021042;28;20044;-84
2021/08/25 00:04:30;;;;;;;3.70;3.50;;;18.80;54.20;;;;;;5054175;28;20033;-84
2021/08/25 00:06:56;;;;;;;3.90;3.70;;;18.70;54.20;;;;;;5055029;28;20036;-84
2021/08/25 00:09:22;;;;;;;3.50;3.40;;;18.70;54.30;;;;;;5054689;28;20473;-85
2021/08/25 00:11:48;;;;;;;3.40;3.30;;;18.70;54.30;;;;;;5059159;28;20032;-84
2021/08/25 00:14:15;;;;;;;3.88;3.55;;;18.60;54.30;;;;;;5056519;28;20045;-84
2021/08/25 00:16:41;;;;;;;3.50;3.30;;;18.70;54.40;;;;;;5055548;28;20037;-85
2021/08/25 00:19:07;;;;;;;3.80;3.60;;;18.70;54.40;;;;;;5057252;28;20029;-85
2021/08/25 00:21:33;;;;;;;3.90;3.60;;;18.60;54.40;;;;;;5051884;28;20030;-84
2021/08/25 00:23:59;;;;;;;3.72;3.53;;;18.60;54.50;;;;;;5059389;28;20363;-85
2021/08/25 00:26:25;;;;;;;3.50;3.35;;;18.60;54.50;;;;;;5063535;28;20039;-85
2021/08/25 00:28:51;;;;;;;3.30;3.20;;;18.60;54.60;;;;;;5061507;28;20506;-85
2021/08/25 00:31:17;;;;;;;3.35;3.25;;;18.50;54.60;;;;;;5056875;28;20040;-87
2021/08/25 00:33:43;;;;;;;4.07;3.83;;;18.50;54.60;;;;;;5052330;28;20041;-84
2021/08/25 00:36:09;;;;;;;3.90;3.70;;;18.50;54.60;;;;;;5073678;28;20025;-85
2021/08/25 00:38:35;;;;;;;3.88;3.67;;;18.50;54.70;;;;;;5056620;28;20047;-84
2021/08/25 00:41:03;;;;;;;3.60;3.42;;;18.40;54.80;;;;;;5055246;28;20055;-83
2021/08/25 00:43:29;;;;;;;3.80;3.60;;;18.40;54.80;;;;;;5056947;28;20426;-83
2021/08/25 00:45:55;;;;;;;3.90;3.70;;;18.40;54.90;;;;;;5054715;28;20044;-85
2021/08/25 00:48:21;;;;;;;3.90;3.60;;;18.40;54.90;;;;;;5053256;28;20501;-84
2021/08/25 00:50:49;;;;;;;4.22;3.97;;;18.40;54.90;;;;;;5058838;28;20025;-83
2021/08/25 00:53:16;;;;;;;5.53;4.03;;;18.40;54.90;;;;;;5055627;28;20390;-85
2021/08/25 00:55:43;;;;;;;4.55;4.18;;;18.30;54.90;;;;;;5053861;28;20087;-82
2021/08/25 00:58:09;;;;;;;3.88;3.67;;;18.30;54.90;;;;;;5056770;28;20035;-85
2021/08/25 01:00:45;;;;;;;4.18;3.85;;;18.30;55.00;;;;;;5050954;28;20041;-84
2021/08/25 01:03:19;;;;;;;3.97;3.78;;;18.30;55.10;;;;;;5065093;28;20025;-85
2021/08/25 01:05:46;;;;;;;4.18;3.97;;;18.20;55.20;;;;;;5057234;28;20029;-84
2021/08/25 01:08:12;;;;;;;3.83;3.63;;;18.20;55.20;;;;;;5054809;28;20033;-83
2021/08/25 01:10:38;;;;;;;3.20;3.10;;;18.20;55.20;;;;;;5056438;28;20033;-83
2021/08/25 01:13:06;;;;;;;3.50;3.30;;;18.20;55.30;;;;;;5038161;28;20040;-84
2021/08/25 01:15:33;;;;;;;3.33;3.22;;;18.10;55.30;;;;;;5051582;28;20049;-85
2021/08/25 01:18:11;;;;;;;3.60;3.40;;;18.10;55.30;;;;;;5057931;28;20056;-85
2021/08/25 01:20:37;;;;;;;3.70;3.50;;;18.10;55.30;;;;;;5056718;28;20264;-84
2021/08/25 01:23:03;;;;;;;3.67;3.47;;;18.10;55.40;;;;;;5054799;28;20040;-85
2021/08/25 01:25:33;;;;;;;3.63;3.42;;;18.00;56.00;;;;;;5038445;28;20063;-84
2021/08/25 01:28:04;;;;;;;3.10;3.00;;;18.00;55.50;;;;;;5053134;28;20500;-84
2021/08/25 01:30:31;;;;;;;3.70;3.45;;;18.00;55.50;;;;;;5050639;28;20037;-84
2021/08/25 01:33:01;;;;;;;3.70;3.50;;;18.00;55.50;;;;;;5056419;28;20064;-85
2021/08/25 01:35:33;;;;;;;3.20;3.10;;;18.00;55.50;;;;;;5054523;28;20040;-84
2021/08/25 01:38:03;;;;;;;3.65;3.45;;;17.90;55.60;;;;;;5053263;28;20040;-81
2021/08/25 01:40:30;;;;;;;4.07;3.88;;;17.90;55.60;;;;;;5054709;28;20036;-84
2021/08/25 01:42:56;;;;;;;3.45;3.33;;;17.90;55.70;;;;;;5054275;28;20036;-84
2021/08/25 01:45:22;;;;;;;3.35;3.25;;;17.90;55.70;;;;;;5052517;28;20040;-85
2021/08/25 01:47:48;;;;;;;2.97;2.88;;;17.80;55.80;;;;;;5056220;28;20029;-84
2021/08/25 01:50:14;;;;;;;3.65;3.45;;;17.80;55.90;;;;;;5055783;28;20029;-85
2021/08/25 01:52:40;;;;;;;4.25;3.95;;;17.80;55.90;;;;;;5054226;28;20033;-84
2021/08/25 01:55:07;;;;;;;3.85;3.58;;;17.70;56.00;;;;;;5055303;28;20405;-84
2021/08/25 01:57:33;;;;;;;4.47;3.22;;;17.70;56.00;;;;;;5051096;28;20514;-85
2021/08/25 01:59:59;;;;;;;3.83;3.53;;;17.70;56.10;;;;;;5036378;28;20045;-86
2021/08/25 02:02:25;;;;;;;3.75;3.55;;;17.60;56.20;;;;;;5046057;28;20051;-87
2021/08/25 02:04:51;;;;;;;3.35;3.15;;;17.60;56.20;;;;;;5045044;28;20389;-85
2021/08/25 02:07:17;;;;;;;3.78;3.58;;;17.60;56.20;;;;;;5046107;28;20029;-85
2021/08/25 02:09:45;;;;;;;3.58;3.38;;;17.60;56.30;;;;;;5027044;28;20478;-85
2021/08/25 02:12:11;;;;;;;3.75;3.55;;;17.50;56.30;;;;;;5035146;28;20032;-87
2021/08/25 02:14:37;;;;;;;3.20;3.10;;;17.50;56.40;;;;;;5060526;28;20033;-85
2021/08/25 02:17:06;;;;;;;3.38;3.20;;;17.50;56.50;;;;;;5039347;28;20034;-84
2021/08/25 02:19:35;;;;;;;3.50;3.30;;;17.50;56.50;;;;;;5035952;28;20029;-85
2021/08/25 02:22:01;;;;;;;3.60;3.40;;;17.40;56.50;;;;;;5039897;28;20025;-85
2021/08/25 02:24:27;;;;;;;3.20;3.10;;;17.40;56.60;;;;;;5032401;28;20088;-84
2021/08/25 02:26:53;;;;;;;3.38;3.22;;;17.40;56.60;;;;;;5035640;28;20037;-89
2021/08/25 02:29:19;;;;;;;3.20;3.08;;;17.40;56.70;;;;;;5041827;28;20394;-85
2021/08/25 02:31:45;;;;;;;3.40;3.20;;;17.30;56.70;;;;;;5042748;28;20033;-84
2021/08/25 02:34:11;;;;;;;3.38;3.28;;;17.30;56.80;;;;;;5044160;28;20045;-84
2021/08/25 02:36:37;;;;;;;3.45;3.25;;;17.30;56.80;;;;;;5048864;28;20046;-82
2021/08/25 02:39:03;;;;;;;3.60;3.40;;;17.30;56.90;;;;;;5055521;28;20385;-84
2021/08/25 02:41:30;;;;;;;3.25;3.15;;;17.30;56.90;;;;;;5054911;28;20025;-84
2021/08/25 02:43:56;;;;;;;2.83;2.72;;;17.30;56.90;;;;;;5054843;28;20072;-85
2021/08/25 02:46:22;;;;;;;3.65;3.45;;;17.30;57.00;;;;;;5054630;28;20033;-84
2021/08/25 02:48:48;;;;;;;3.70;3.50;;;17.30;57.00;;;;;;5050948;28;20033;-85
2021/08/25 02:51:14;;;;;;;3.50;3.30;;;17.30;57.00;;;;;;5053802;28;20393;-84
2021/08/25 02:53:40;;;;;;;3.25;3.15;;;17.30;57.00;;;;;;5053325;28;20042;-84
2021/08/25 02:56:06;;;;;;;3.40;3.30;;;17.30;56.90;;;;;;5054807;28;20052;-84
2021/08/25 02:58:32;;;;;;;3.50;3.30;;;17.30;56.90;;;;;;5054643;28;20040;-85
2021/08/25 03:00:58;;;;;;;3.47;3.28;;;17.30;57.00;;;;;;5052854;28;20046;-85
2021/08/25 03:03:24;;;;;;;3.40;3.20;;;17.30;57.20;;;;;;5033944;28;20037;-85
2021/08/25 03:05:51;;;;;;;3.80;3.50;;;17.20;57.10;;;;;;5055091;28;20028;-85
2021/08/25 03:08:17;;;;;;;3.72;3.53;;;17.20;57.10;;;;;;5038547;28;20040;-84
2021/08/25 03:10:43;;;;;;;3.72;3.25;;;17.20;57.20;;;;;;5054863;28;20406;-85
2021/08/25 03:13:09;;;;;;;3.10;3.00;;;17.20;57.30;;;;;;5054430;28;20033;-81
2021/08/25 03:15:35;;;;;;;3.40;3.20;;;17.20;57.30;;;;;;5049923;28;20067;-84
2021/08/25 03:18:01;;;;;;;3.47;3.28;;;17.20;57.90;;;;;;5056370;28;20033;-84
2021/08/25 03:20:27;;;;;;;3.58;3.35;;;17.20;57.30;;;;;;5054182;28;20041;-85
2021/08/25 03:22:53;;;;;;;3.30;3.20;;;17.20;57.30;;;;;;5036812;28;20060;-85
2021/08/25 03:25:19;;;;;;;3.67;3.47;;;17.10;57.40;;;;;;5053358;28;20021;-85
2021/08/25 03:27:46;;;;;;;3.60;3.40;;;17.10;57.50;;;;;;5050407;28;20045;-84
2021/08/25 03:30:12;;;;;;;3.20;3.10;;;17.00;57.60;;;;;;5052453;28;20025;-84
2021/08/25 03:32:38;;;;;;;3.33;3.22;;;17.00;57.80;;;;;;5054006;28;20037;-85
2021/08/25 03:35:05;;;;;;;3.60;3.40;;;17.00;57.80;;;;;;5053738;28;20049;-84
2021/08/25 03:37:31;;;;;;;3.40;3.20;;;16.90;57.80;;;;;;5054241;28;20113;-84
2021/08/25 03:39:57;;;;;;;3.72;3.53;;;16.90;58.00;;;;;;5037747;28;20056;-84
2021/08/25 03:42:23;;;;;;;3.20;3.10;;;16.90;58.10;;;;;;5055313;28;20450;-84
2021/08/25 03:44:49;;;;;;;3.30;3.20;;;16.90;58.10;;;;;;5060279;28;20048;-84
2021/08/25 03:47:15;;;;;;;3.38;3.17;;;16.80;58.20;;;;;;5058191;28;20033;-84
2021/08/25 03:49:42;;;;;;;3.55;3.35;;;16.80;58.30;;;;;;5056655;28;20509;-85
2021/08/25 03:52:08;;;;;;;3.42;3.22;;;16.80;58.40;;;;;;5056646;28;20491;-84
2021/08/25 03:54:34;;;;;;;3.65;3.45;;;16.70;58.40;;;;;;5018499;28;20046;-84
2021/08/25 03:57:00;;;;;;;3.35;3.15;;;16.70;58.70;;;;;;5059562;28;20045;-84
2021/08/25 03:59:27;;;;;;;3.28;3.08;;;16.60;58.90;;;;;;5057814;28;20048;-84
2021/08/25 04:01:53;;;;;;;3.70;3.50;;;16.60;58.90;;;;;;5057329;28;20048;-84
2021/08/25 04:04:19;;;;;;;3.60;3.38;;;16.60;59.10;;;;;;5057431;28;20366;-84
2021/08/25 04:06:45;;;;;;;3.00;2.90;;;16.60;59.10;;;;;;5054461;28;20084;-84
2021/08/25 04:09:11;;;;;;;3.10;3.00;;;16.60;59.10;;;;;;5057764;28;20037;-85
2021/08/25 04:11:37;;;;;;;3.13;3.03;;;16.60;59.20;;;;;;5057116;28;20482;-84
2021/08/25 04:14:03;;;;;;;3.40;3.20;;;16.60;59.10;;;;;;5057556;28;20032;-84
2021/08/25 04:16:29;;;;;;;3.45;3.25;;;16.60;59.20;;;;;;5057112;28;20049;-87
2021/08/25 04:18:58;;;;;;;3.22;3.13;;;16.60;59.20;;;;;;5054221;28;20021;-84
2021/08/25 04:21:25;;;;;;;3.17;3.08;;;16.60;59.30;;;;;;5054412;28;20025;-84
2021/08/25 04:23:51;;;;;;;3.10;3.00;;;16.50;59.40;;;;;;5041725;28;20394;-84
2021/08/25 04:26:17;;;;;;;3.50;3.30;;;16.50;59.40;;;;;;5057340;28;20021;-84
2021/08/25 04:28:43;;;;;;;3.03;2.92;;;16.50;59.50;;;;;;5057288;28;20044;-85
2021/08/25 04:31:09;;;;;;;3.25;3.15;;;16.50;59.40;;;;;;5053817;28;20028;-85
2021/08/25 04:33:36;;;;;;;3.00;2.90;;;16.50;59.50;;;;;;5035082;28;20387;-84
2021/08/25 04:36:03;;;;;;;3.10;3.00;;;16.50;59.40;;;;;;5069287;28;20107;-84
2021/08/25 04:38:29;;;;;;;2.95;2.85;;;16.60;59.50;;;;;;5056050;28;20514;-84
2021/08/25 04:40:57;;;;;;;3.42;3.22;;;16.50;59.40;;;;;;5057214;28;20482;-85
2021/08/25 04:43:25;;;;;;;2.90;2.80;;;16.50;59.50;;;;;;5057068;28;20473;-83
2021/08/25 04:45:51;;;;;;;3.30;3.10;;;16.50;59.60;;;;;;5052726;28;20060;-84
2021/08/25 04:48:17;;;;;;;3.10;3.00;;;16.40;59.60;;;;;;5055574;28;20037;-84
2021/08/25 04:50:43;;;;;;;3.42;3.22;;;16.40;59.70;;;;;;5056551;28;20036;-85
2021/08/25 04:53:09;;;;;;;2.72;2.63;;;16.40;59.70;;;;;;5056054;28;20036;-84
2021/08/25 04:55:38;;;;;;;3.13;2.97;;;16.40;59.80;;;;;;5055470;28;20044;-86
2021/08/25 04:58:05;;;;;;;3.15;2.97;;;16.30;59.80;;;;;;5055214;28;20389;-84
2021/08/25 05:00:31;;;;;;;3.20;3.00;;;16.30;59.80;;;;;;5051989;28;20401;-84
2021/08/25 05:02:57;;;;;;;3.00;2.90;;;16.30;59.90;;;;;;5057422;28;20033;-82
2021/08/25 05:05:23;;;;;;;3.15;3.05;;;16.30;60.10;;;;;;5055312;28;20037;-85
2021/08/25 05:07:49;;;;;;;3.22;3.03;;;16.20;60.20;;;;;;5056439;28;20036;-84
2021/08/25 05:10:17;;;;;;;3.15;2.95;;;16.20;60.30;;;;;;5053972;28;20037;-84
2021/08/25 05:12:44;;;;;;;3.58;3.30;;;16.20;60.40;;;;;;5051544;28;20041;-84
2021/08/25 05:15:10;;;;;;;3.42;3.22;;;16.20;60.50;;;;;;5055981;28;20033;-83
2021/08/25 05:17:36;;;;;;;3.03;2.92;;;16.10;60.50;;;;;;5040347;28;20036;-84
2021/08/25 05:20:04;;;;;;;2.92;2.83;;;16.10;60.50;;;;;;5055227;28;20036;-85
2021/08/25 05:22:30;;;;;;;3.03;2.83;;;16.10;60.50;;;;;;5056357;28;20371;-85
2021/08/25 05:24:56;;;;;;;3.42;3.22;;;16.10;60.40;;;;;;5054674;28;20375;-85
2021/08/25 05:27:22;;;;;;;3.05;2.85;;;16.10;60.50;;;;;;5052925;28;20032;-85
2021/08/25 05:29:48;;;;;;;3.40;3.20;;;16.10;60.50;;;;;;5055910;28;20222;-84
2021/08/25 05:32:14;;;;;;;3.08;2.95;;;16.10;60.60;;;;;;5055691;28;20500;-85
2021/08/25 05:34:40;;;;;;;3.15;2.97;;;16.10;60.70;;;;;;5054911;28;20045;-84
2021/08/25 05:37:06;;;;;;;3.05;2.95;;;16.10;60.70;;;;;;5055788;28;20436;-85
2021/08/25 05:39:32;;;;;;;3.20;3.00;;;16.10;61.60;;;;;;5051775;28;20029;-84
2021/08/25 05:41:58;;;;;;;3.55;3.35;;;16.10;60.70;;;;;;5058129;28;20489;-85
2021/08/25 05:44:24;;;;;;;3.08;2.97;;;16.10;60.80;;;;;;5055577;28;20029;-84
2021/08/25 05:46:51;;;;;;;3.80;3.50;;;16.10;60.90;;;;;;5055396;28;20199;-84
2021/08/25 05:49:17;;;;;;;3.53;3.33;;;16.10;60.90;;;;;;5054392;28;20032;-85
2021/08/25 05:51:43;;;;;;;3.47;3.28;;;16.20;61.00;;;;;;5052078;28;20033;-84
2021/08/25 05:54:09;;;;;;;3.00;2.90;;;16.30;60.90;;;;;;5038348;28;20036;-86
2021/08/25 05:56:36;;;;;;;3.38;3.17;;;16.40;60.90;;;;;;5056233;28;20496;-85
2021/08/25 05:59:02;;;;;;;3.35;3.17;;;16.40;61.00;;;;;;5054128;28;20397;-85
2021/08/25 06:01:28;;;;;;;3.55;3.35;;;16.40;61.00;;;;;;5055196;28;20036;-84
2021/08/25 06:03:54;;;;;;;3.00;2.90;;;16.50;61.00;;;;;;5051345;28;20482;-84
2021/08/25 06:06:20;;;;;;;3.45;3.30;;;16.60;60.90;;;;;;5036156;28;20036;-85
2021/08/25 06:08:46;;;;;;;3.15;3.05;;;16.70;60.70;;;;;;5053869;28;20021;-86
2021/08/25 06:11:12;;;;;;;3.58;3.38;;;16.80;60.50;;;;;;5055321;28;20040;-85
2021/08/25 06:13:38;;;;;;;2.78;2.67;;;16.90;60.40;;;;;;5054927;28;20334;-85
2021/08/25 06:16:05;;;;;;;2.88;2.78;;;17.00;60.40;;;;;;5053219;28;20048;-84
2021/08/25 06:18:31;;;;;;;3.33;3.17;;;17.00;60.40;;;;;;5051347;28;20041;-85
2021/08/25 06:20:58;;;;;;;2.92;2.83;;;17.10;60.40;;;;;;5057118;28;20037;-85
2021/08/25 06:23:24;;;;;;;3.08;2.90;;;17.20;60.30;;;;;;5037728;28;20041;-85
2021/08/25 06:25:51;;;;;;;3.28;3.08;;;17.30;60.20;;;;;;5055468;28;20049;-85
2021/08/25 06:28:17;;;;;;;3.17;3.08;;;17.40;60.10;;;;;;5053371;28;20036;-85
2021/08/25 06:30:43;;;;;;;3.00;2.90;;;17.40;60.10;;;;;;5033405;28;20470;-84
2021/08/25 06:33:09;;;;;;;3.20;3.10;;;17.40;60.00;;;;;;5055484;28;20505;-82
2021/08/25 06:35:35;;;;;;;3.10;3.00;;;17.60;60.00;;;;;;5055778;28;20057;-84
2021/08/25 06:38:01;;;;;;;3.20;3.10;;;17.60;59.90;;;;;;5054673;28;20394;-85
2021/08/25 06:40:28;;;;;;;3.53;3.33;;;17.70;59.90;;;;;;5053764;28;20043;-85
2021/08/25 06:42:54;;;;;;;3.45;3.25;;;17.70;59.90;;;;;;5052475;28;20036;-84
2021/08/25 06:45:20;;;;;;;3.75;3.55;;;17.80;59.80;;;;;;5052897;28;20032;-84
2021/08/25 06:47:46;;;;;;;3.35;3.15;;;17.90;59.70;;;;;;5054472;28;20485;-85
2021/08/25 06:50:12;;;;;;;3.80;3.60;;;18.00;59.60;;;;;;5054892;28;20032;-84
2021/08/25 06:52:38;;;;;;;4.20;4.00;;;18.10;59.50;;;;;;5054717;28;20044;-85
2021/08/25 06:55:04;;;;;;;4.45;4.25;;;18.20;59.40;;;;;;5054050;28;20059;-84
2021/08/25 06:57:31;;;;;;;4.47;4.25;;;18.30;59.40;;;;;;5049195;28;20390;-84
2021/08/25 06:59:57;;;;;;;5.10;4.90;;;18.30;59.30;;;;;;5056950;28;20044;-84
2021/08/25 07:02:23;;;;;;;4.03;3.83;;;18.40;59.30;;;;;;5054305;28;20040;-85
2021/08/25 07:04:49;;;;;;;5.60;5.35;;;18.40;59.30;;;;;;5053704;28;20044;-87
2021/08/25 07:07:15;;;;;;;5.35;5.15;;;18.50;59.30;;;;;;5053156;28;20035;-86
2021/08/25 07:09:41;;;;;;;5.75;5.45;;;18.60;59.20;;;;;;5049673;28;20386;-84
2021/08/25 07:12:08;;;;;;;4.70;4.50;;;18.70;59.10;;;;;;5055348;28;20393;-85
2021/08/25 07:14:34;;;;;;;4.32;4.13;;;18.70;59.00;;;;;;5054365;28;20041;-84
2021/08/25 07:17:00;;;;;;;5.13;4.93;;;18.80;59.10;;;;;;5057949;28;20036;-84
2021/08/25 07:19:26;;;;;;;5.90;5.60;;;18.80;59.10;;;;;;5058626;28;20054;-85
2021/08/25 07:21:53;;;;;;;4.60;4.40;;;18.90;59.00;;;;;;5056274;28;20033;-85
2021/08/25 07:24:19;;;;;;;6.07;5.75;;;19.00;58.90;;;;;;5057078;28;20033;-86
2021/08/25 07:26:45;;;;;;;5.53;5.22;;;19.10;58.80;;;;;;5057922;28;20035;-85
2021/08/25 07:29:11;;;;;;;3.90;3.70;;;19.20;58.80;;;;;;5058471;28;20021;-85
2021/08/25 07:31:38;;;;;;;4.10;3.90;;;19.30;58.70;;;;;;5057838;28;20044;-85
2021/08/25 07:34:04;;;;;;;4.50;4.25;;;19.30;58.60;;;;;;5057538;28;20041;-85
2021/08/25 07:36:30;;;;;;;3.50;3.40;;;19.40;58.70;;;;;;5054558;28;20048;-85
2021/08/25 07:38:56;;;;;;;4.10;3.85;;;19.40;58.60;;;;;;5059003;28;20032;-85
2021/08/25 07:41:22;;;;;;;4.38;4.07;;;19.50;58.60;;;;;;5057861;28;20044;-85
2021/08/25 07:43:48;;;;;;;4.40;4.20;;;19.60;58.40;;;;;;5056863;28;20037;-85
2021/08/25 07:46:14;;;;;;;3.80;3.60;;;19.70;58.30;;;;;;5055071;28;20032;-86
2021/08/25 07:48:40;;;;;;;5.22;5.03;;;19.90;58.20;;;;;;5054174;28;20029;-85
2021/08/25 07:51:09;;;;;;;4.20;4.00;;;20.00;57.90;;;;;;5059302;28;20029;-85
2021/08/25 07:53:36;;;;;;;5.78;5.47;;;20.10;57.80;;;;;;5057460;28;20045;-84
2021/08/25 07:56:03;;;;;;;5.25;5.05;;;20.30;57.70;;;;;;5057573;28;20048;-85
2021/08/25 07:58:29;;;;;;;6.40;6.10;;;20.40;57.50;;;;;;5056316;28;20024;-85
2021/08/25 08:00:55;;;;;;;5.53;5.22;;;20.50;57.40;;;;;;5055550;28;20044;-84
2021/08/25 08:03:21;;;;;;;6.07;5.78;;;20.50;57.40;;;;;;5054906;28;20036;-87
2021/08/25 08:05:48;;;;;;;6.05;5.75;;;20.60;57.30;;;;;;5058559;28;20037;-85
2021/08/25 08:08:15;;;;;;;5.90;5.60;;;20.70;57.30;;;;;;5057888;28;20025;-85
2021/08/25 08:10:41;;;;;;;5.38;5.07;;;20.80;57.10;;;;;;5057386;28;20032;-85
2021/08/25 08:13:07;;;;;;;4.47;4.28;;;20.80;57.00;;;;;;5056218;28;20028;-85
2021/08/25 08:15:33;;;;;;;4.82;4.53;;;21.00;56.90;;;;;;5051614;28;20107;-85
2021/08/25 08:18:08;;;;;;;5.10;4.70;;;21.00;56.80;;;;;;5059642;28;20044;-86
2021/08/25 08:20:34;;;;;;;5.03;4.82;;;21.10;56.80;;;;;;5058224;28;20044;-86
2021/08/25 08:23:00;;;;;;;4.60;4.40;;;21.10;56.70;;;;;;5056514;28;20033;-85
2021/08/25 08:25:26;;;;;;;4.90;4.70;;;21.30;56.70;;;;;;5055878;28;20029;-86
2021/08/25 08:27:52;;;;;;;5.35;4.85;;;21.40;56.40;;;;;;5052917;28;20021;-86
2021/08/25 08:30:18;;;;;;;5.65;5.35;;;21.60;56.20;;;;;;5037473;28;20029;-85
2021/08/25 08:32:45;;;;;;;7.10;6.72;;;21.80;56.10;;;;;;5091335;28;20061;-84
2021/08/25 08:35:11;;;;;;;8.52;7.97;;;21.90;55.80;;;;;;5054927;28;20045;-86
2021/08/25 08:37:37;;;;;;;9.77;9.30;;;22.00;55.60;;;;;;5057041;28;20044;-90
2021/08/25 08:40:04;;;;;;;7.10;6.80;;;22.10;55.50;;;;;;5055213;28;20032;-85
2021/08/25 08:42:34;;;;;;;7.60;7.30;;;22.10;55.50;;;;;;5035218;28;20037;-85
2021/08/25 08:45:02;;;;;;;8.10;7.70;;;22.10;55.40;;;;;;5058842;28;20036;-86
2021/08/25 08:47:28;;;;;;;6.80;6.50;;;22.10;55.30;;;;;;5055047;28;20041;-86
2021/08/25 08:49:56;;;;;;;7.32;6.95;;;22.20;55.30;;;;;;5056914;28;20478;-86
2021/08/25 08:52:22;;;;;;;6.72;6.43;;;22.40;55.20;;;;;;5056657;28;20029;-86
2021/08/25 08:54:50;;;;;;;5.88;5.57;;;22.40;55.00;;;;;;5051492;28;20037;-85
2021/08/25 08:57:17;;;;;;;5.72;5.43;;;22.50;54.90;;;;;;5038405;28;20037;-86
2021/08/25 08:59:43;;;;;;;5.88;5.40;;;22.60;54.70;;;;;;5073464;28;20381;-85
2021/08/25 09:02:10;;;;;;;5.90;5.40;;;22.70;54.70;;;;;;5054960;28;20048;-88
2021/08/25 09:04:41;;;;;;;5.82;5.53;;;22.80;54.60;;;;;;5054114;28;20029;-87
2021/08/25 09:07:18;;;;;;;5.80;5.50;;;22.90;54.50;;;;;;5054910;28;20029;-86
2021/08/25 09:09:58;;;;;;;5.53;5.22;;;23.00;54.20;;;;;;5037552;28;20032;-85
2021/08/25 09:12:24;;;;;;;5.88;5.30;;;23.10;54.10;;;;;;5052466;28;20474;-85
2021/08/25 09:14:51;;;;;;;6.60;6.30;;;23.20;53.90;;;;;;5058315;28;20037;-86
2021/08/25 09:17:29;;;;;;;7.38;6.78;;;23.30;53.60;;;;;;5054814;28;20525;-86
2021/08/25 09:20:11;;;;;;;6.07;5.78;;;23.40;53.60;;;;;;5055221;28;20497;-86
2021/08/25 09:22:37;;;;;;;6.07;5.78;;;23.50;53.50;;;;;;5036993;28;20037;-86
2021/08/25 09:25:04;;;;;;;6.25;5.95;;;23.60;53.30;;;;;;5054339;28;20029;-87
2021/08/25 09:27:30;;;;;;;11.32;10.77;;;23.80;53.00;;;;;;5052644;28;20405;-85
2021/08/25 09:29:57;;;;;;;6.45;6.13;;;24.00;52.80;;;;;;5057038;28;20040;-86
2021/08/25 09:32:25;;;;;;;5.90;5.60;;;24.10;52.50;;;;;;5054230;28;20041;-85
2021/08/25 09:34:56;;;;;;;6.43;6.03;;;24.10;52.40;;;;;;5055983;28;20049;-86
2021/08/25 09:37:22;;;;;;;5.93;5.63;;;24.10;52.40;;;;;;5054482;28;20032;-86
2021/08/25 09:39:50;;;;;;;6.25;5.85;;;24.00;52.40;;;;;;5033604;28;20040;-88
2021/08/25 09:42:18;;;;;;;5.78;5.45;;;24.10;52.40;;;;;;5054050;28;20032;-86
2021/08/25 09:44:45;;;;;;;7.53;7.13;;;24.30;52.30;;;;;;5090006;28;20367;-86
2021/08/25 09:47:12;;;;;;;7.75;7.35;;;24.50;52.00;;;;;;5055374;28;20044;-86
2021/08/25 09:49:39;;;;;;;8.13;7.72;;;24.60;51.60;;;;;;5055832;28;20049;-86
2021/08/25 09:52:06;;;;;;;7.47;7.18;;;24.60;51.60;;;;;;5053921;28;20024;-86
2021/08/25 09:54:32;;;;;;;8.50;7.82;;;24.70;51.40;;;;;;5067989;28;20033;-85
2021/08/25 09:56:58;;;;;;;8.50;8.10;;;24.90;51.30;;;;;;5057676;28;20041;-85
2021/08/25 09:59:24;;;;;;;8.45;8.05;;;24.90;51.10;;;;;;5055587;28;20501;-85
2021/08/25 10:01:51;;;;;;;9.27;8.88;;;24.90;50.90;;;;;;5052478;28;20048;-86
2021/08/25 10:04:17;;;;;;;9.63;9.13;;;24.90;50.70;;;;;;5054450;28;20025;-85
2021/08/25 10:06:45;;;;;;;11.00;10.13;;;24.90;50.80;;;;;;5050462;28;20025;-86
2021/08/25 10:09:11;;;;;;;9.57;9.13;;;24.90;50.60;;;;;;5054304;28;20040;-86
2021/08/25 10:11:39;;;;;;;9.23;8.82;;;24.90;50.70;;;;;;5056092;28;20020;-86
2021/08/25 10:14:07;;;;;;;9.52;9.13;;;25.00;50.50;;;;;;5057874;28;20398;-86
2021/08/25 10:16:38;;;;;;;9.15;8.75;;;25.10;50.50;;;;;;5037229;28;20041;-86
2021/08/25 10:19:28;;;;;;;8.40;8.00;;;25.30;50.20;;;;;;5054701;28;20028;-87
2021/08/25 10:21:58;;;;;;;8.10;7.70;;;25.40;50.00;;;;;;5037132;28;20374;-86
2021/08/25 10:24:24;;;;;;;8.00;7.60;;;25.60;49.80;;;;;;5051471;28;20029;-86
2021/08/25 10:26:59;;;;;;;8.48;7.88;;;25.70;49.70;;;;;;5056306;28;20060;-86
2021/08/25 10:29:26;;;;;;;9.73;9.25;;;25.80;49.50;;;;;;5055375;28;20484;-86
2021/08/25 10:31:56;;;;;;;9.27;8.77;;;25.90;49.30;;;;;;5060347;28;20037;-86
2021/08/25 10:34:27;;;;;;;8.32;7.93;;;25.90;49.20;;;;;;5064391;28;20029;-87
2021/08/25 10:37:22;;;;;;;;;;;25.90;49.10;;;;;;5051919;28;20044;-86
2021/08/25 10:39:58;;;;;;;7.32;6.95;;;25.90;48.90;;;;;;5035618;28;20290;-86
2021/08/25 10:42:49;;;;;;;7.85;7.32;;;25.80;48.70;;;;;;5035519;28;20048;-86
2021/08/25 10:45:16;;;;;;;7.50;7.13;;;25.90;48.60;;;;;;5058515;28;20045;-86
2021/08/25 10:47:58;;;;;;;8.30;7.90;;;26.00;48.60;;;;;;5071711;28;20471;-85
2021/08/25 10:50:50;;;;;;;8.38;7.97;;;26.10;48.40;;;;;;5053107;28;20412;-86
2021/08/25 10:53:28;;;;;;;9.85;9.38;;;26.10;48.40;;;;;;5048373;28;20037;-86
2021/08/25 10:56:39;;;;;;;8.52;8.02;;;26.20;48.30;;;;;;5054700;28;20032;-85
2021/08/25 10:59:07;;;;;;;6.95;6.65;;;26.30;48.10;;;;;;5014167;28;20042;-86
2021/08/25 11:01:44;;;;;;;8.77;8.38;;;26.20;47.90;;;;;;4997250;28;20418;-86
2021/08/25 11:04:22;;;;;;;8.15;7.40;;;26.30;47.90;;;;;;5014094;28;20025;-88
2021/08/25 11:07:01;;;;;;;10.57;10.07;;;26.30;48.00;;;;;;5011371;28;20025;-87
2021/08/25 11:09:46;;;;;;;7.75;7.35;;;26.40;47.90;;;;;;4996023;28;20042;-86
2021/08/25 11:12:16;;;;;;;7.22;6.90;;;26.50;47.70;;;;;;5038734;28;20046;-85
2021/08/25 11:14:49;;;;;;;7.90;7.50;;;26.50;47.50;;;;;;4997927;28;20042;-86
2021/08/25 11:17:18;;;;;;;7.90;7.50;;;26.50;47.30;;;;;;5012583;28;20276;-85
2021/08/25 11:19:47;;;;;;;7.25;6.72;;;26.50;47.20;;;;;;5014169;28;20034;-86
2021/08/25 11:22:37;;;;;;;6.97;6.63;;;26.60;46.90;;;;;;4997902;28;20044;-87
2021/08/25 11:25:13;;;;;;;7.13;6.73;;;26.60;46.80;;;;;;5010053;28;20026;-86
2021/08/25 11:27:43;;;;;;;7.85;7.45;;;26.60;46.90;;;;;;5026258;28;20553;-87
2021/08/25 11:30:14;;;;;;;7.18;6.78;;;26.70;46.80;;;;;;4997441;28;20044;-87
2021/08/25 11:33:08;;;;;;;7.65;7.32;;;26.80;46.60;;;;;;5030301;28;20041;-87
2021/08/25 11:35:35;;;;;;;7.72;7.32;;;27.10;46.30;;;;;;5043753;28;20048;-86
2021/08/25 11:38:08;;;;;;;7.05;6.75;;;27.20;46.00;;;;;;5038125;28;20038;-86
2021/08/25 11:40:38;;;;;;;7.22;6.93;;;27.20;46.00;;;;;;5053356;28;20108;-86
2021/08/25 11:43:11;;;;;;;7.32;6.93;;;27.30;45.90;;;;;;5052147;28;20052;-85
2021/08/25 11:45:37;;;;;;;6.13;5.82;;;27.40;45.30;;;;;;5033877;28;20033;-86
2021/08/25 11:48:04;;;;;;;6.90;6.60;;;27.50;45.30;;;;;;5063797;28;20048;-86
2021/08/25 11:50:32;;;;;;;7.95;7.55;;;27.40;45.10;;;;;;5053448;28;20033;-87
2021/08/25 11:52:59;;;;;;;13.25;12.55;;;27.40;45.00;;;;;;5054502;28;20036;-85
2021/08/25 11:55:25;;;;;;;9.00;8.60;;;27.50;44.90;;;;;;5053015;28;20033;-85
2021/08/25 11:57:55;;;;;;;7.20;6.85;;;27.40;44.40;;;;;;5050378;28;20892;-86
2021/08/25 12:00:44;;;;;;;7.65;7.28;;;27.30;44.30;;;;;;5052055;28;20037;-85
2021/08/25 12:03:10;;;;;;;8.82;8.15;;;27.30;44.20;;;;;;5094052;28;20041;-86
2021/08/25 12:05:38;;;;;;;7.38;7.07;;;27.20;44.30;;;;;;5058498;28;20092;-85
2021/08/25 12:08:11;;;;;;;8.85;8.45;;;27.30;44.20;;;;;;5056584;28;20032;-85
2021/08/25 12:10:44;;;;;;;8.45;8.05;;;27.30;43.80;;;;;;5057854;28;20036;-85
2021/08/25 12:13:33;;;;;;;8.75;8.25;;;27.30;43.40;;;;;;5040243;28;20025;-83
2021/08/25 12:16:00;;;;;;;7.25;6.93;;;27.30;43.20;;;;;;5054389;28;20037;-84
2021/08/25 12:18:27;;;;;;;7.40;7.00;;;27.30;43.00;;;;;;5054729;28;20025;-85
2021/08/25 12:20:55;;;;;;;8.65;8.15;;;27.30;42.90;;;;;;5058171;28;20032;-85
2021/08/25 12:23:25;;;;;;;7.25;6.95;;;27.30;42.70;;;;;;5057655;28;20037;-87
2021/08/25 12:25:53;;;;;;;7.78;7.38;;;27.30;42.60;;;;;;5057858;28;20053;-86
2021/08/25 12:28:38;;;;;;;6.38;6.07;;;27.30;42.60;;;;;;5057572;28;20025;-87
2021/08/25 12:31:14;;;;;;;6.63;6.32;;;27.30;42.20;;;;;;5054863;28;20029;-85
2021/08/25 12:33:41;;;;;;;6.97;6.68;;;27.30;41.90;;;;;;5036746;28;20408;-85
2021/08/25 12:36:30;;;;;;;14.02;13.35;;;27.40;41.90;;;;;;5057066;28;20037;-86
2021/08/25 12:38:57;;;;;;;6.95;6.65;;;27.30;41.70;;;;;;5072624;28;20025;-85
2021/08/25 12:41:23;;;;;;;6.80;6.50;;;27.40;41.60;;;;;;5066409;28;20450;-84
2021/08/25 12:43:50;;;;;;;6.47;6.18;;;27.40;41.60;;;;;;5060622;28;20029;-88
2021/08/25 12:46:16;;;;;;;6.60;6.30;;;27.40;41.30;;;;;;5056455;28;20397;-86
2021/08/25 12:48:42;;;;;;;6.90;6.60;;;27.40;41.50;;;;;;5034553;28;20025;-85
2021/08/25 12:51:09;;;;;;;7.05;6.75;;;27.50;41.40;;;;;;5057988;28;20044;-86
2021/08/25 12:53:35;;;;;;;6.72;6.43;;;27.50;41.30;;;;;;5056202;28;20035;-85